Tiempo atmosférico en la estación meteorológica de Segovia, Segovia (1005 m.)



Fecha
DESCASC
Temp. máxima en grados centígrados (hora)
DESCASC
Temp. mínima en grados centígrados (hora)
DESCASC
Temp. media en grados centígrados
DESCASC
Racha de viento máxima en m/sg (hora)
DESCASC
Velocidad máxima media en intervalos de 10 minutos(hora)
DESCASC
Precipitaciones diarias en mm
DESCASC
Precipitaciones de 00:00 a 06:00 en mm
DESCASC
Precipitaciones de 06:00 a 12:00 en mm
DESCASC
Precipitaciones de 12:00 a 18:00 en mm
DESCASC
Precipitaciones de 18:00 a 24:00 en mm
DESCASC
21-02-2021 11.8 (11:30) 0.2 (20:50) 6 14.72 (06:30) 10 (04:50) 4.8 0 0 0 4.8
20-02-2021 14.2 (13:20) 10.4 (04:10) 12.3 22.22 (06:40) 15 (06:40) 0 0 0 0 0
19-02-2021 15.2 (15:10) 6.1 (05:40) 10.6 15.83 (23:00) 8.89 (13:20) 0 0 0 0 0
18-02-2021 15.3 (15:10) 7.9 (00:00) 11.6 13.61 (13:20) 8.89 (13:20) 0 0 0 0 0
17-02-2021 15.6 (17:00) 6.6 (00:00) 11.1 8.61 (21:50) 6.39 (21:50) 0 0 0 0 0
16-02-2021 17 (13:20) 8.7 (00:00) 12.8 11.94 (11:50) 8.61 (12:20) 0 0 0 0 0
15-02-2021 17 (15:10) 4.6 (00:00) 10.8 6.39 (20:00) 4.44 (19:50) 0 0 0 0 0
14-02-2021 15.9 (15:00) 2.7 (00:00) 9.3 5.83 (14:30) 3.61 (14:30) 0 0 0 0 0
13-02-2021 11.7 (16:00) 2.4 (00:00) 7 7.22 (15:40) 4.17 (13:00) 0 0 0 0 0
12-02-2021 10.7 (03:10) 5.7 (00:00) 8.2 13.33 (11:00) 8.33 (11:00) 4.4 3 1.4 0 0
11-02-2021 15 (15:50) 5.8 (00:00) 10.4 7.22 (02:30) 4.44 (23:20) 0.2 0.2 0 0 0
10-02-2021 9.6 (16:20) 2.4 (00:00) 6 18.61 (04:30) 12.5 (04:30) 6 6 0 0 0
09-02-2021 8.2 (11:40) 0.4 (00:00) 4.3 21.39 (13:50) 13.33 (13:50) 12 2.8 0.2 6.2 2.8
08-02-2021 7.1 (01:20) 3.5 (00:00) 5.3 16.11 (13:50) 11.11 (13:50) 16.8 5.4 2.6 4.2 4.6
07-02-2021 7 (14:00) 1.2 (00:00) 4.1 9.17 (16:50) 6.39 (17:00) 4.4 0 0 1.2 3.2
06-02-2021 8.8 (13:00) 3.1 (00:00) 6 10 (14:30) 5.83 (01:40) 5.2 0.4 0.2 4.6 0
05-02-2021 13.6 (15:10) 5 (00:00) 9.3 13.89 (02:50) 8.06 (02:40) 3.8 0 0 0 3.8
04-02-2021 12.9 (15:10) 4.3 (00:00) 8.6 11.11 (14:50) 7.5 (16:00) 0 0 0 0 0
03-02-2021 14 (15:50) 4.6 (00:00) 9.3 11.11 (15:20) 8.06 (16:20) 0 0 0 0 0
02-02-2021 14.1 (16:40) 5.7 (23:59) 9.9 7.5 (20:20) 5 (20:20) 0 0 0 0 0
01-02-2021 10.3 (16:00) 6.3 (00:00) 8.3 17.5 (02:00) 11.67 (02:20) 0 0 0 0 0
31-01-2021 11.2 (17:20) 4.4 (00:00) 7.8 18.61 (23:40) 11.67 (23:40) 10.8 0 7.2 3.6 0
30-01-2021 10.5 (00:00) 4.5 (00:00) 7.5 20.83 (15:20) 14.44 (15:40) 7.4 6 1 0.2 0.2
29-01-2021 13.9 (15:30) 7.1 (00:00) 10.5 7.5 (22:50) 4.72 (06:10) 0 0 0 0 0
28-01-2021 17.6 (16:20) 8.6 (00:00) 13.1 5.83 (15:40) 4.44 (03:00) 0 0 0 0 0
27-01-2021 13.2 (16:20) 9.2 (00:00) 11.2 7.5 (05:00) 4.72 (05:00) 2 1.8 0.2 0 0
26-01-2021 11.4 (15:50) 7.4 (00:00) 9.4 6.39 (14:10) 4.72 (14:10) 8.4 2.8 3 1.2 1.4
25-01-2021 10.3 (10:40) 6.1 (00:00) 8.2 15.28 (11:40) 10.83 (12:30) 6.4 0.4 0.2 1.6 4.2

Gráficas

Temp. máximas Temp. mínimas Temp. medias Precipitaciones Rachas de viento máximas Velocidades máximas media en intervalos de 10 minutos

Datos horarios

Fecha y hora oficial Temperatura (ºC) Velocidad del viento (km/h) Dirección del viento Racha (km/h) Dirección de racha Precipitación (mm) Presión (hPa) Tendencia (hPa) Humedad (%)
2021-02-23 23:00:00 7.4 27 Sudeste 45 Sudeste 0 915.5 0.3 64
2021-02-23 22:00:00 7.6 24 Sudeste 37 Sur 0 915.5 0.5 63
2021-02-23 21:00:00 7.7 18 Sudeste 37 Sur 0 915.3 0.6 64
2021-02-23 20:00:00 8.2 19 Sur 31 Sudeste 0 915.2 0.9 60
2021-02-23 19:00:00 8.4 21 Sudeste 35 Sudeste 0 915 0.8 61
2021-02-23 18:00:00 9.7 21 Sudeste 35 Sudeste 0 914.7 -- 56
2021-02-23 17:00:00 11.1 22 Sudeste 32 Sudeste 0 914.3 -- 54
2021-02-23 16:00:00 12.3 7 Oeste 28 Sudeste 0 914.2 -- 49
2021-02-23 15:00:00 10.9 14 Sudeste 40 Sudeste 0 914.4 -- 54
2021-02-23 14:00:00 10.4 25 Sudeste 36 Sudeste 0 914.6 -- 57
2021-02-23 13:00:00 10.4 9 Sur 19 Oeste 0 915 -- 54
2021-02-23 12:00:00 8.7 6 Noroeste 10 Noroeste 0 914.6 -- 68
2021-02-23 11:00:00 7.7 8 Oeste 12 Sudoeste 0 914.4 -- 69
2021-02-23 10:00:00 6.6 3 Noroeste 10 Sudeste 0 913.6 -- 69
2021-02-23 09:00:00 3.2 3 Este 16 Nordeste 0 912.9 -- 77
2021-02-23 08:00:00 2.3 5 Sudeste 20 Este 0 912.1 -- 79
2021-02-23 07:00:00 2.7 15 Este 24 Este 0 911.5 -- 77
2021-02-23 06:00:00 1.7 8 Este 15 Este 0 911.4 -- 83
2021-02-23 05:00:00 1 6 Este 13 Este 0 911.3 -- 84
2021-02-23 04:00:00 2 7 Este 19 Este 0 910.9 -- 81
2021-02-23 03:00:00 1.4 6 Este 9 Este 0 911 -- 85
2021-02-23 02:00:00 1.1 6 Este 9 Nordeste 0 910.8 -- 86
2021-02-23 01:00:00 1.6 5 Este 10 Este 0 910.2 -- 84
2021-02-23 00:00:00 1.6 5 Este 9 Sudeste 0 909.7 -- 85
2021-02-22 23:00:00 1.7 6 Este 9 Sudeste 0 909.2 -- 86
2021-02-22 22:00:00 2.3 5 Sudoeste 13 Este 0 908.4 -- 82
2021-02-22 21:00:00 2.8 7 Este 13 Sudeste 0 907.8 -- 82
2021-02-22 20:00:00 3.5 9 Sudeste 14 Sudeste 0 907.5 -- 78
2021-02-22 19:00:00 4.7 10 Sudeste 14 Este 0 906.6 -- 74
2021-02-22 18:00:00 5.4 11 Sudeste 16 Sudeste 0 906 -- 72
2021-02-22 17:00:00 5.3 7 Sudeste 17 Este 0 905.6 -- 70
2021-02-22 16:00:00 5.2 10 Sudeste 19 Sudeste 0 904.8 -- 77
2021-02-22 15:00:00 4.5 12 Sudeste 17 Este 0 904.3 -- 80
2021-02-22 14:00:00 3.5 10 Sur 14 Sur 0 904.3 -- 86
2021-02-22 13:00:00 2.9 4 Sur 10 Noroeste 0.2 904.2 -- 85
2021-02-22 12:00:00 2.2 8 Oeste 14 Oeste 0.8 903.9 -- 90
2021-02-22 11:00:00 1.4 9 Oeste 19 Oeste 0.6 903.3 -- 97
2021-02-22 10:00:00 0.8 14 Oeste 23 Oeste 1 902.5 -- 99
2021-02-22 09:00:00 1.1 10 Oeste 22 Oeste 1.4 901.4 -- 99
2021-02-22 08:00:00 1 10 Oeste 19 Oeste 1.4 900.1 -- 99
2021-02-22 07:00:00 0.5 3 Nordeste 13 Norte 0.4 899.3 1.9 99
2021-02-22 06:00:00 0.5 6 Norte 24 Noroeste 1.2 898.6 -- 99
2021-02-22 05:00:00 1.1 15 Noroeste 35 Oeste 2.6 898 -- 99
2021-02-22 04:00:00 1.4 10 Oeste 19 Oeste 2.2 897.4 -- 99
2021-02-22 03:00:00 1.1 13 Oeste 23 Oeste 3 897.1 -- 99
2021-02-22 02:00:00 1 11 Oeste 21 Oeste 2.4 896.4 -- 99
2021-02-22 01:00:00 0.6 10 Sudoeste 16 Sudoeste 0.8 895.9 -- 99
2021-02-22 00:00:00 0.3 9 Sudoeste 14 Sudoeste 0.4 895.3 -- 98
2021-02-21 23:00:00 0.2 9 Sur 17 Sur 0.4 894.9 -- 98
2021-02-21 22:00:00 0.3 13 Sur 18 Sur 0.2 894.5 2.8 98
2021-02-21 21:00:00 0.3 13 Sur 24 Sudoeste 0.2 893.8 -- 97
2021-02-21 20:00:00 0.9 22 Sudoeste 42 Sudoeste 2.8 893.3 -- 93
2021-02-21 19:00:00 4.3 12 Oeste 30 Noroeste 0.8 891.7 -- 96
2021-02-21 18:00:00 6 20 Oeste 31 Noroeste 0 890.7 -- 89
2021-02-21 17:00:00 8.9 8 Este 27 Sudeste 0 890 -- 67
2021-02-21 16:00:00 9.3 17 Este 38 Sudeste 0 889.9 -- 64
2021-02-21 15:00:00 9.8 21 Sudeste 34 Sudeste 0 889.8 -- 62
2021-02-21 14:00:00 10 20 Sudeste 33 Sur 0 890.5 -- 60
2021-02-21 13:00:00 9.8 17 Sudoeste 40 Oeste 0 890.5 -- 58
2021-02-21 12:00:00 11.3 14 Oeste 27 Oeste 0 890.7 -- 50
2021-02-21 11:00:00 11 5 Noroeste 20 Nordeste 0 890.8 -- 53
2021-02-21 10:00:00 9.8 10 Nordeste 23 Nordeste 0 891.6 -- 58
2021-02-21 09:00:00 8.4 13 Oeste 30 Sudoeste 0 891.5 -- 58
2021-02-21 08:00:00 8.5 8 Este 37 Sudeste 0 891.4 -- 55
2021-02-21 07:00:00 8.4 28 Sudeste 53 Sudeste 0 891.7 -- 57
2021-02-21 06:00:00 9.5 24 Sudeste 44 Sudeste 0 891.8 -- 53
2021-02-21 05:00:00 10.1 33 Sudeste 51 Sudeste 0 891.2 -- 53
2021-02-21 04:00:00 10.1 32 Sudeste 49 Sudeste 0 891.7 -- 52
2021-02-21 03:00:00 10.4 17 Sudeste 48 Este 0 892.7 -- 49
2021-02-21 02:00:00 10.4 28 Sudeste 46 Sudeste 0 893.8 -- 49
2021-02-21 01:00:00 11.4 27 Sudeste 45 Sudeste 0 894.3 -- 39
2021-02-21 00:00:00 11.3 14 Sudeste 41 Sudeste 0 894.3 -- 33
2021-02-20 23:00:00 11.7 29 Sudeste 45 Sudeste 0 894.2 -- 32
2021-02-20 22:00:00 11.1 20 Sudeste 35 Sur 0 894.9 -- 30
2021-02-20 21:00:00 10.9 23 Sudeste 37 Sur 0 895.4 -- 28
2021-02-20 20:00:00 11.6 23 Sur 48 Sur 0 896 -- 31
2021-02-20 19:00:00 12 34 Sudeste 53 Sudeste 0 895.7 -- 33
2021-02-20 18:00:00 12.6 35 Sur 55 Sudeste 0 895.5 -- 32
2021-02-20 17:00:00 13.2 22 Sudeste 50 Sur 0 895.8 -- 34
2021-02-20 16:00:00 13 27 Sur 54 Sur 0 896.1 -- 33
2021-02-20 15:00:00 12.8 23 Sudeste 48 Sur 0 896.6 -- 33
2021-02-20 14:00:00 12.6 15 Sur 44 Sur 0 897.1 -- 35
2021-02-20 13:00:00 13 29 Sur 67 Sur 0 897.2 -- 29
2021-02-20 12:00:00 11.7 41 Sur 60 Sur 0 897.7 -- 32
2021-02-20 11:00:00 11.6 33 Sur 59 Sur 0 897.8 -- 34
2021-02-20 10:00:00 11.5 27 Sur 56 Sur 0 897.7 -- 34
2021-02-20 09:00:00 11.1 36 Sur 62 Sur 0 897 -0.9 35
2021-02-20 08:00:00 11.3 29 Sur 64 Sur 0 896.9 -- 34
2021-02-20 07:00:00 11.3 40 Sur 80 Sur 0 896.8 -- 37
2021-02-20 06:00:00 10.9 30 Sur 58 Sur 0 897.9 -- 39
2021-02-20 05:00:00 11.1 26 Sur 54 Sur 0 897.4 -- 40
2021-02-20 04:00:00 10.6 26 Sur 48 Sudoeste 0 898.3 -1 42
2021-02-20 03:00:00 11.1 25 Sudoeste 46 Sur 0 898.9 -- 38
2021-02-20 02:00:00 11.2 24 Sudoeste 47 Sur 0 899.1 -- 35
2021-02-20 01:00:00 11.4 28 Sur 54 Sur 0 899.3 -- 37
2021-02-20 00:00:00 11.9 29 Sur 50 Sur 0 899.7 -- 39
2021-02-19 23:00:00 11.9 31 Sur 57 Sur 0 899.8 -1.5 37
2021-02-19 22:00:00 11.5 26 Sur 46 Sur 0 900.3 -- 39
2021-02-19 21:00:00 11.5 19 Sur 35 Sudeste 0 900.7 -- 43
2021-02-19 20:00:00 11 14 Sur 30 Sur 0 901.3 -- 44
2021-02-19 19:00:00 11.8 22 Sur 41 Sur 0 901.1 -- 38
2021-02-19 18:00:00 12.9 21 Sur 38 Sur 0 901.3 -- 36
2021-02-19 17:00:00 13.6 22 Sur 45 Sur 0 901.4 -0.3 35
2021-02-19 16:00:00 14.5 25 Sur 49 Sur 0 901.2 -- 30
2021-02-19 15:00:00 15 24 Sur 49 Sur 0 901.3 -- 34
2021-02-19 14:00:00 14.8 24 Sudoeste 53 Sur 0 901.7 -- 36
2021-02-19 13:00:00 14.4 26 Sudoeste 47 Sudoeste 0 902.3 -- 35
2021-02-19 12:00:00 13.6 22 Sudoeste 41 Sudoeste 0 902.7 -- 36
2021-02-19 11:00:00 12.6 24 Sudoeste 40 Sudoeste 0 903.2 -- 36
2021-02-19 10:00:00 11.3 17 Sudoeste 30 Sudoeste 0 903 -- 42
2021-02-19 09:00:00 8.9 14 Sur 22 Sur 0 903 -- 49
2021-02-19 08:00:00 8.3 13 Sudoeste 23 Sur 0 902.9 -- 52
2021-02-19 07:00:00 7.3 17 Sur 25 Sur 0 902.7 -- 57
2021-02-19 06:00:00 6.2 14 Sur 17 Sur 0 902.9 -- 60
2021-02-19 05:00:00 7.5 10 Sudoeste 21 Sudoeste 0 902.8 -- 57
2021-02-19 04:00:00 7 12 Sur 19 Sur 0 903.1 -- 53
2021-02-19 03:00:00 7.2 15 Sur 29 Sur 0 903.4 -- 51
2021-02-19 02:00:00 8.4 17 Sur 36 Sur 0 903.6 -- 50
2021-02-19 01:00:00 8.7 20 Sur 32 Sur 0 903.7 -- 50
2021-02-19 00:00:00 8.7 16 Sudoeste 28 Sudoeste 0 903.9 -- 49
2021-02-18 23:00:00 7.9 18 Sur 23 Sur 0 903.9 -- 54
2021-02-18 22:00:00 9.1 17 Sur 34 Sudoeste 0 903.8 -- 49
2021-02-18 21:00:00 9.2 16 Sudoeste 25 Sudoeste 0 903.6 -- 45
2021-02-18 20:00:00 9.2 11 Sur 22 Sur 0 903.3 -- 45
2021-02-18 19:00:00 10.5 12 Sudoeste 29 Oeste 0 902.6 -- 46
2021-02-18 18:00:00 12.5 21 Oeste 34 Oeste 0 902.1 -- 39
2021-02-18 17:00:00 13.5 23 Oeste 40 Oeste 0 901.9 -- 38
2021-02-18 16:00:00 13.7 30 Oeste 41 Oeste 0 901.7 -- 37
2021-02-18 15:00:00 15.2 26 Sudoeste 41 Sudoeste 0 901.8 -- 40
2021-02-18 14:00:00 14.1 27 Sudoeste 49 Sudoeste 0 902 -- 39
2021-02-18 13:00:00 13.6 31 Sudoeste 46 Sudoeste 0 902.4 -- 38
2021-02-18 12:00:00 12.6 26 Sudoeste 38 Sur 0 902.5 -- 39
2021-02-18 11:00:00 11.6 21 Sudoeste 38 Sudoeste 0 902.6 -- 39
2021-02-18 10:00:00 11.2 23 Sudoeste 37 Sudoeste 0 902.5 -- 37
2021-02-18 09:00:00 10.2 16 Sur 30 Sur 0 902 -- 40
2021-02-18 08:00:00 9.1 19 Sur 28 Sur 0 901.4 -- 44
2021-02-18 07:00:00 9.2 14 Sur 24 Sur 0 901.5 -- 43
2021-02-18 06:00:00 9.5 15 Sudoeste 23 Sur 0 901.8 -- 42
2021-02-18 05:00:00 9.7 14 Sudoeste 28 Sur 0 902 -- 44
2021-02-18 04:00:00 11.1 17 Sudoeste 27 Sur 0 902.1 -- 36
2021-02-18 03:00:00 9.9 15 Sudoeste 35 Sudoeste 0 902.2 -- 46
2021-02-18 02:00:00 10.2 17 Sudoeste 28 Sur 0 902.4 -- 45
2021-02-18 01:00:00 11.4 14 Sudoeste 35 Sur 0 902.8 -- 41
2021-02-18 00:00:00 10.5 17 Sur 30 Sur 0 903.2 -- 45
2021-02-17 23:00:00 10.8 19 Sur 28 Sur 0 903.5 -- 46
2021-02-17 22:00:00 11.1 22 Sur 31 Sur 0 903.5 -- 39
2021-02-17 21:00:00 10.5 17 Sur 24 Sur 0 903.6 -- 45
2021-02-17 20:00:00 10.9 12 Sur 16 Sur 0 903.7 -- 51
2021-02-17 19:00:00 12.1 5 Oeste 13 Oeste 0 903.8 -- 59
2021-02-17 18:00:00 14.2 13 Sudoeste 30 Sudoeste 0 904 -- 49
2021-02-17 17:00:00 15.5 19 Sudoeste 28 Sudoeste 0 904.1 -- 45
2021-02-17 16:00:00 14.6 8 Oeste 21 Sudoeste 0 904.5 -- 53
2021-02-17 15:00:00 14.4 10 Oeste 21 Oeste 0 905 -- 53
2021-02-17 14:00:00 14.1 9 Sudoeste 15 Sudoeste 0 905.8 -- 56
2021-02-17 13:00:00 13.2 5 Oeste 8 Noroeste 0 906.6 -- 56
2021-02-17 12:00:00 11.6 6 Sudoeste 10 Sudoeste 0 907.2 -- 62
2021-02-17 11:00:00 9.9 2 Este 6 Oeste 0 907.5 -- 76
2021-02-17 10:00:00 8.3 2 Oeste 4 Sudoeste 0 907.6 -- 81
2021-02-17 09:00:00 6.8 0 Calma 10 Este 0 907.4 -- 82
2021-02-17 08:00:00 6.7 6 Este 9 Este 0 907.3 -- 81
2021-02-17 07:00:00 7.6 4 Nordeste 5 Nordeste 0 907.5 -- 79
2021-02-17 06:00:00 8.5 3 Noroeste 4 Sudoeste 0 907.7 -- 77
2021-02-17 05:00:00 8.8 5 Sudeste 8 Sur 0 907.7 -- 76
2021-02-17 04:00:00 9.3 5 Sudoeste 13 Sur 0 908.3 -- 73
2021-02-17 03:00:00 8.9 8 Sudeste 11 Sur 0 908.5 -- 76
2021-02-17 02:00:00 9 9 Sudeste 10 Sur 0 908.8 -- 75
2021-02-17 01:00:00 9.1 8 Sur 11 Sur 0 909.2 -- 73
2021-02-17 00:00:00 8.8 7 Sur 12 Sur 0 909.4 -- 76
2021-02-16 23:00:00 8.9 9 Sur 18 Sudoeste 0 909.7 -- 74
2021-02-16 22:00:00 9.8 15 Sudoeste 27 Sudoeste 0 909.5 -- 70
2021-02-16 21:00:00 9.8 9 Sudoeste 18 Sudoeste 0 909.7 -- 67
2021-02-16 20:00:00 10.2 5 Oeste 13 Oeste 0 909.3 -- 63
2021-02-16 19:00:00 11.3 0 Calma 23 Oeste 0 909.1 -- 58
2021-02-16 18:00:00 12.2 17 Oeste 25 Noroeste 0 909 -- 49
2021-02-16 17:00:00 13.6 13 Oeste 26 Noroeste 0 908.7 -- 54
2021-02-16 16:00:00 14.8 13 Oeste 21 Oeste 0 908.6 -- 54
2021-02-16 15:00:00 14.9 14 Oeste 27 Oeste 0 908.9 -- 46
2021-02-16 14:00:00 15.9 22 Oeste 40 Sudoeste 0 909.2 -- 41
2021-02-16 13:00:00 16.5 27 Sudoeste 42 Sudoeste 0 909.8 -- 35
2021-02-16 12:00:00 15.4 29 Sudoeste 43 Sudoeste 0 909.5 -- 32
2021-02-16 11:00:00 14.5 21 Sudoeste 35 Sudoeste 0 909.3 -- 32
2021-02-16 10:00:00 14.4 20 Sudoeste 32 Sur 0 909.1 -- 33
2021-02-16 09:00:00 11.5 19 Sur 26 Sur 0 909 -- 40
2021-02-16 08:00:00 10.4 14 Sur 27 Sur 0 908.8 -- 39
2021-02-16 07:00:00 11.3 15 Sur 31 Sur 0 908.5 -- 35
2021-02-16 06:00:00 12.2 20 Sur 33 Sur 0 908.6 -- 32
2021-02-16 05:00:00 12.4 12 Sur 30 Sur 0 908.8 -- 31
2021-02-16 04:00:00 13.1 19 Sur 36 Sur 0 909 -- 27
2021-02-16 03:00:00 13.4 24 Sur 37 Sur 0 909.5 -- 26
2021-02-16 02:00:00 12.8 26 Sur 33 Sur 0 909.7 -- 27
2021-02-16 01:00:00 9.5 9 Sudeste 16 Sur 0 910.2 -- 41
2021-02-16 00:00:00 9 7 Este 11 Este 0 910.4 -- 52
2021-02-15 23:00:00 9.4 8 Este 12 Este 0 910.6 -- 52
2021-02-15 22:00:00 9.6 7 Nordeste 11 Nordeste 0 910.8 -- 52
2021-02-15 21:00:00 10 8 Este 12 Nordeste 0 910.7 -- 49
2021-02-15 20:00:00 9.9 14 Sudeste 23 Sudeste 0 910.8 -- 50
2021-02-15 19:00:00 12.5 9 Sudeste 17 Sudeste 0 910.6 -- 42
2021-02-15 18:00:00 15.7 5 Noroeste 11 Noroeste 0 910.8 -- 44
2021-02-15 17:00:00 16.5 5 Norte 14 Noroeste 0 911 -- 37
2021-02-15 16:00:00 16.1 10 Noroeste 19 Noroeste 0 911.1 -- 40
2021-02-15 15:00:00 16.8 6 Noroeste 10 Noroeste 0 911.4 -- 41
2021-02-15 14:00:00 15.4 5 Noroeste 13 Norte 0 912.3 -- 43
2021-02-15 13:00:00 14.2 5 Noroeste 11 Oeste 0 913.2 -- 49
2021-02-15 12:00:00 12.7 4 Oeste 6 Oeste 0 913.8 -- 42
2021-02-15 11:00:00 10.8 6 Oeste 9 Oeste 0 913.9 -- 55
2021-02-15 10:00:00 8.5 4 Nordeste 8 Sudeste 0 913.6 -- 59
2021-02-15 09:00:00 5.3 3 Sudeste 14 Este 0 913.2 -- 65
2021-02-15 08:00:00 5.2 5 Nordeste 14 Nordeste 0 912.8 -- 64
2021-02-15 07:00:00 4.9 8 Este 11 Este 0 912.6 -- 72
2021-02-15 06:00:00 5.2 8 Este 12 Este 0 912.6 -- 70
2021-02-15 05:00:00 5.2 4 Este 8 Este 0 912.5 -- 71
2021-02-15 04:00:00 5.3 4 Este 9 Sudeste 0 912.6 -- 73
2021-02-15 03:00:00 6.4 5 Este 10 Sudeste 0 912.8 -- 69
2021-02-15 02:00:00 7.2 4 Este 8 Este 0 913 -- 65
2021-02-15 01:00:00 7.7 6 Este 13 Sudeste 0 912.7 -- 61
2021-02-15 00:00:00 8 6 Este 10 Este 0 912.7 -- 63
2021-02-14 23:00:00 8.3 6 Este 9 Este 0 912.8 -- 61
2021-02-14 22:00:00 8.3 7 Este 9 Este 0 912.5 -- 62
2021-02-14 21:00:00 8.8 6 Este 11 Sudeste 0 912.5 -- 63
2021-02-14 20:00:00 9.9 7 Sudeste 12 Sudeste 0 912.2 -- 60
2021-02-14 19:00:00 12.2 7 Este 10 Sudeste 0 911.8 0.7 54
2021-02-14 18:00:00 14 4 Sudoeste 12 Sudoeste 0 911.6 0.3 45
2021-02-14 17:00:00 15 9 Sudoeste 15 Oeste 0 911.5 -- 44
2021-02-14 16:00:00 15.7 2 Nordeste 16 Sudoeste 0 911.1 -- 42
2021-02-14 15:00:00 15.7 9 Sur 21 Sudoeste 0 911.3 -- 45
2021-02-14 14:00:00 15 9 Sudoeste 18 Noroeste 0 911.8 -- 45
2021-02-14 13:00:00 13.5 8 Oeste 13 Oeste 0 912.3 -- 52
2021-02-14 12:00:00 12.3 8 Oeste 14 Sudoeste 0 912.6 -- 57
2021-02-14 11:00:00 11.5 4 Sudoeste 10 Sudoeste 0 912.1 -- 59
2021-02-14 10:00:00 6.9 5 Este 9 Este 0 912 -- 65
2021-02-14 09:00:00 4.1 8 Este 12 Este 0 911.6 -- 76
2021-02-14 08:00:00 3.1 8 Este 14 Este 0 911.2 -- 76
2021-02-14 07:00:00 3.1 9 Este 14 Este 0 911.1 -- 78
2021-02-14 06:00:00 2.8 6 Este 13 Este 0 911 -- 82
2021-02-14 05:00:00 2.9 8 Nordeste 10 Sudeste 0 910.8 -- 84
2021-02-14 04:00:00 3.4 7 Nordeste 12 Este 0 911.2 -- 85
2021-02-14 03:00:00 3.8 6 Este 13 Sudeste 0 911.5 -- 90
2021-02-14 02:00:00 4.3 4 Este 8 Nordeste 0 911.3 -- 88
2021-02-14 01:00:00 5.3 4 Nordeste 8 Este 0 911.2 -- 88
2021-02-14 00:00:00 5.8 5 Este 10 Sur 0 911.8 -- 91
2021-02-13 23:00:00 6.2 6 Este 12 Sudoeste 0 911.7 -- 90
2021-02-13 22:00:00 7.5 4 Este 12 Sudeste 0 911.6 -- 85
2021-02-13 21:00:00 8.3 3 Este 6 Norte 0 911.7 -- 82
2021-02-13 20:00:00 8.8 4 Norte 8 Norte 0 911.6 -- 80
2021-02-13 19:00:00 9.7 5 Oeste 9 Noroeste 0 911.1 -- 76
2021-02-13 18:00:00 10.7 4 Oeste 11 Noroeste 0 910.5 -- 71
2021-02-13 17:00:00 11 5 Norte 20 Noroeste 0 910.2 -- 67
2021-02-13 16:00:00 11.6 10 Oeste 26 Oeste 0 910 -- 65
2021-02-13 15:00:00 10.9 14 Oeste 25 Oeste 0 910.2 -- 61
2021-02-13 14:00:00 10.6 14 Sudoeste 24 Sudoeste 0 910.7 -- 52
2021-02-13 13:00:00 9.1 15 Sudoeste 21 Oeste 0 911.2 -- 56
2021-02-13 08:00:00 2.6 5 Este 14 Sudeste 0 909.4 0.5 89
2021-02-13 07:00:00 2.7 6 Este 13 Sudeste 0 909.5 0.5 90
2021-02-13 06:00:00 3.6 4 Nordeste 13 Sudeste 0 909.2 -0.2 90
2021-02-13 05:00:00 4.2 5 Este 14 Sur 0 908.9 -0.5 87
2021-02-13 04:00:00 4.8 9 Sudeste 11 Sur 0 909 -0.4 88
2021-02-13 03:00:00 5.4 5 Sur 8 Sur 0 909.4 0.1 86
2021-02-13 02:00:00 5.8 2 Sudoeste 8 Sur 0 909.4 0.4 86
2021-02-13 01:00:00 5.4 5 Sur 9 Sudoeste 0 909.4 0.6 87
2021-02-13 00:00:00 5.9 8 Sudoeste 13 Sudoeste 0 909.3 0.8 85
2021-02-12 23:00:00 6.2 6 Sudoeste 17 Oeste 0 909 0.9 84
2021-02-12 22:00:00 6.5 8 Oeste 19 Oeste 0 908.8 1.3 84
2021-02-12 21:00:00 7 11 Oeste 17 Oeste 0 908.5 1.6 84
2021-02-12 20:00:00 7 8 Sudoeste 11 Sudoeste 0 908.1 1.4 86
2021-02-12 19:00:00 7.7 10 Oeste 21 Oeste 0 907.5 0.9 84
2021-02-12 18:00:00 8.3 14 Oeste 26 Oeste 0 906.9 0.4 83
2021-02-12 17:00:00 8.6 20 Oeste 33 Oeste 0 906.7 0.4 77
2021-02-12 16:00:00 8.7 19 Oeste 35 Oeste 0 906.6 0.4 78
2021-02-12 15:00:00 8.1 17 Oeste 31 Oeste 0 906.5 0.8 81
2021-02-12 14:00:00 8.2 25 Oeste 42 Oeste 0 906.3 1.2 81
2021-02-12 13:00:00 7.4 25 Oeste 42 Oeste 0 906.2 1.5 85
2021-02-12 12:00:00 6.7 24 Oeste 46 Oeste 0 905.7 1.4 86
2021-02-12 11:00:00 6.3 30 Oeste 48 Sudoeste 0 905.1 1.6 89
2021-02-12 10:00:00 6.2 18 Oeste 28 Oeste 0 904.7 1.6 93
2021-02-12 09:00:00 6.2 19 Oeste 30 Oeste 0 904.3 -- 92
2021-02-12 08:00:00 6.6 19 Oeste 36 Sudoeste 0 903.5 -- 93
2021-02-12 07:00:00 6.7 26 Sudoeste 46 Oeste 1.4 903.1 -- 93
2021-02-12 06:00:00 7.5 15 Oeste 28 Sudoeste 1 902.4 -- 95
2021-02-12 05:00:00 7.2 5 Sudeste 31 Oeste 1 901.8 -- 96
2021-02-12 04:00:00 8.3 23 Oeste 41 Oeste 1 902.2 -- 91
2021-02-12 03:00:00 10.3 19 Sur 36 Sur 0 901.3 -- 69
2021-02-12 02:00:00 9.3 14 Sur 24 Sur 0 902.1 -- 74
2021-02-12 01:00:00 8 7 Sur 16 Sudoeste 0 901.8 -- 80
2021-02-12 00:00:00 9.2 12 Sudoeste 23 Sudoeste 0 901.9 -- 74
2021-02-11 23:00:00 10 13 Sudoeste 23 Sudoeste 0 902.4 -- 71
2021-02-11 22:00:00 9.3 9 Sudoeste 12 Sudoeste 0 902.8 -- 80
2021-02-11 21:00:00 9.9 5 Sudeste 13 Sudeste 0 903.2 -- 84
2021-02-11 20:00:00 11.1 4 Este 6 Nordeste 0 903.1 -- 88
2021-02-11 19:00:00 11.6 0 Calma 13 Oeste 0 903.1 -- 86
2021-02-11 18:00:00 12 8 Noroeste 14 Noroeste 0 903 -- 85
2021-02-11 17:00:00 13.2 9 Noroeste 15 Noroeste 0 903 -- 74
2021-02-11 16:00:00 14.6 8 Oeste 14 Oeste 0 902.9 -- 64
2021-02-11 15:00:00 14.3 8 Oeste 18 Sudoeste 0 903.1 -- 66
2021-02-11 14:00:00 13.1 3 Este 8 Sudeste 0 903.7 -- 72
2021-02-11 13:00:00 12.1 3 Oeste 14 Noroeste 0 904.4 -- 75
2021-02-11 12:00:00 11.7 9 Sudoeste 18 Sudoeste 0 904.5 -- 76
2021-02-11 11:00:00 11.5 10 Sudoeste 19 Sur 0 904.5 -- 78
2021-02-11 10:00:00 10.2 11 Sudoeste 19 Sudoeste 0 904.3 -- 83
2021-02-11 09:00:00 9 6 Sudoeste 15 Sudoeste 0 904 -- 87
2021-02-11 08:00:00 9.1 12 Sudoeste 18 Sudoeste 0 903.5 -- 85
2021-02-11 07:00:00 8.7 10 Sudoeste 18 Oeste 0 903.4 -- 88
2021-02-11 06:00:00 8.5 9 Sudoeste 13 Sudoeste 0 903.1 -- 89
2021-02-11 05:00:00 7.1 5 Sur 14 Sur 0 903.1 -- 94
2021-02-11 04:00:00 6.1 9 Sudeste 14 Sudeste 0.2 903.3 -- 93
2021-02-11 03:00:00 6 8 Sur 26 Sudoeste 0 903.6 -- 88
2021-02-11 02:00:00 6.3 9 Este 16 Sudeste 0 903.2 -- 77
2021-02-11 01:00:00 6.1 6 Sudoeste 20 Sudoeste 0 903.3 -- 76
2021-02-11 00:00:00 6.2 10 Sur 14 Sur 0 902.6 -- 68
2021-02-10 23:00:00 4.7 11 Sudeste 17 Sudeste 0 902.1 -- 71
2021-02-10 22:00:00 3.9 11 Sudeste 15 Sudeste 0 901.7 -- 72
2021-02-10 21:00:00 4.2 12 Sudeste 16 Sudeste 0 901.1 -- 72
2021-02-10 20:00:00 5.4 9 Sudeste 13 Sudeste 0 901.1 -- 68
2021-02-10 19:00:00 7.2 4 Sudoeste 18 Oeste 0 900.4 -- 60
2021-02-10 18:00:00 9.1 11 Oeste 21 Oeste 0 899.8 -- 54
2021-02-10 17:00:00 9.5 14 Oeste 26 Oeste 0 899.4 -- 53
2021-02-10 16:00:00 9.3 19 Sudoeste 31 Sudoeste 0 898.7 -- 57
2021-02-10 15:00:00 8.9 15 Oeste 28 Oeste 0 898.5 -- 62
2021-02-10 14:00:00 8.5 17 Sudoeste 28 Oeste 0 898.5 -- 65
2021-02-10 13:00:00 7.7 15 Oeste 30 Oeste 0 898.4 -- 74
2021-02-10 12:00:00 6.2 23 Oeste 40 Oeste 0 897.6 -- 79
2021-02-10 11:00:00 4.8 24 Oeste 43 Oeste 0 896.7 -- 86
2021-02-10 10:00:00 4.1 18 Oeste 39 Sudoeste 0 895.5 -- 94
2021-02-10 09:00:00 3.9 24 Oeste 40 Oeste 0 893.9 -- 93
2021-02-10 08:00:00 3.8 26 Oeste 58 Oeste 0 892.4 -- 93
2021-02-10 07:00:00 3.4 31 Oeste 40 Oeste 0 891.1 -- 94
2021-02-10 06:00:00 2.8 27 Oeste 44 Oeste 1 890.2 -- 99
2021-02-10 05:00:00 2.7 26 Oeste 67 Oeste 1.4 889.3 -- 95
2021-02-10 04:00:00 4.1 20 Oeste 32 Sudoeste 2.6 888.6 -- 96
2021-02-10 03:00:00 4.3 14 Sudoeste 23 Sudoeste 0.6 887.7 -- 90
2021-02-10 02:00:00 4.1 6 Sudoeste 25 Sudoeste 0.4 888.4 -- 92
2021-02-10 01:00:00 4.3 16 Sudoeste 40 Sudoeste 0 889.1 -- 89
2021-02-10 00:00:00 4.6 23 Sudoeste 34 Sudoeste 0 889.1 -- 85
2021-02-09 23:00:00 4.7 23 Sudoeste 33 Sudoeste 0 889 -- 82
2021-02-09 22:00:00 4 15 Sudoeste 29 Sudoeste 0 888.8 -- 91
2021-02-09 21:00:00 3 12 Sur 25 Sudoeste 0.4 889 -- 97
2021-02-09 20:00:00 3 22 Oeste 56 Sudoeste 1.6 889 -- 96
2021-02-09 19:00:00 4.9 39 Sudoeste 54 Sudoeste 0.8 887.4 -- 88
2021-02-09 18:00:00 5.2 9 Sur 22 Sudoeste 0 887.3 -- 85
2021-02-09 17:00:00 4.3 19 Sudoeste 33 Sudoeste 0.2 888.3 -- 86
2021-02-09 16:00:00 2.2 11 Sur 39 Sudoeste 1.4 888 -- 96
2021-02-09 15:00:00 0.4 13 Sur 51 Oeste 1.6 889 -- 96
2021-02-09 14:00:00 3.1 44 Oeste 77 Oeste 3 888.8 -- 93
2021-02-09 13:00:00 7.8 35 Sudoeste 57 Sur 0 886.1 -- 74
2021-02-09 12:00:00 8.1 34 Sudoeste 61 Sudoeste 0 886.9 -- 72
2021-02-09 11:00:00 7.9 33 Sur 54 Sudoeste 0 887.3 -- 73
2021-02-09 10:00:00 7.9 28 Sudoeste 52 Sudoeste 0 887.6 -- 70
2021-02-09 09:00:00 6.4 17 Sur 41 Sur 0 888.5 -- 78
2021-02-09 08:00:00 5.7 22 Sur 32 Sur 0 889.3 -- 81
2021-02-09 07:00:00 5.5 15 Sur 34 Sudoeste 0.2 890.5 -- 84
2021-02-09 06:00:00 5.3 21 Sur 36 Sur 0.2 891.2 -- 84
2021-02-09 05:00:00 3.9 8 Sudeste 23 Sudeste 0 891.4 -- 91
2021-02-09 04:00:00 3.3 15 Sur 24 Sur 1 892.3 -- 90
2021-02-09 03:00:00 2.9 9 Sur 37 Sudoeste 1.2 893.2 -- 90
2021-02-09 02:00:00 3.8 33 Sudoeste 48 Sudoeste 0.4 893.5 -- 90
2021-02-09 01:00:00 4.4 18 Sudoeste 33 Sudoeste 0 893.3 -- 90
2021-02-09 00:00:00 4.3 15 Sudoeste 28 Oeste 0 893.2 -- 92
2021-02-08 23:00:00 4.6 21 Sudoeste 33 Sudoeste 0 893.1 -- 92
2021-02-08 22:00:00 4.7 25 Sudoeste 43 Oeste 0 892.6 -- 94
2021-02-08 21:00:00 4.8 28 Oeste 47 Oeste 0.6 892.1 -- 97
2021-02-08 20:00:00 4.6 18 Oeste 45 Oeste 3.2 891.3 -- 100
2021-02-08 19:00:00 4.6 30 Oeste 53 Oeste 0.8 890.6 -- 97
2021-02-08 18:00:00 4.4 24 Oeste 36 Oeste 1.2 889.9 -- 98
2021-02-08 17:00:00 3.8 23 Oeste 50 Oeste 2.4 889.5 -- 93
2021-02-08 16:00:00 4.9 32 Oeste 55 Oeste 0.4 888.8 -- 89
2021-02-08 15:00:00 5.4 21 Oeste 45 Oeste 0 888.7 -- 86
2021-02-08 14:00:00 5.5 39 Oeste 58 Oeste 0.2 889.1 -- 77
2021-02-08 13:00:00 5.4 29 Sudoeste 46 Oeste 0 889.4 -- 84
2021-02-08 12:00:00 4.8 30 Oeste 46 Oeste 0 889.5 -- 89
2021-02-08 11:00:00 4.3 22 Sudoeste 36 Sudoeste 0 889.1 -- 92
2021-02-08 10:00:00 3.6 23 Oeste 34 Oeste 0.4 888.7 -- 93
2021-02-08 09:00:00 3.8 18 Sudoeste 39 Oeste 0 888.4 -- 93
2021-02-08 08:00:00 4.1 27 Oeste 41 Oeste 2.2 887.6 -- 94
2021-02-08 07:00:00 4.6 15 Sudoeste 36 Sudoeste 0 887.2 -- 95
2021-02-08 06:00:00 4.5 25 Sudoeste 37 Sur 0.8 887.4 -- 94
2021-02-08 05:00:00 4.7 18 Sudoeste 40 Sudoeste 3.4 887.4 -- 92
2021-02-08 04:00:00 6.3 19 Sudoeste 31 Sudoeste 0.2 887.4 -- 81
2021-02-08 03:00:00 5.8 13 Sudoeste 27 Sudoeste 0.4 888.4 -- 86
2021-02-08 02:00:00 6.2 19 Oeste 27 Oeste 0.6 889.3 -- 87
2021-02-08 01:00:00 6.7 9 Sur 15 Sur 0 889 -- 84
2021-02-08 00:00:00 6 9 Sur 13 Sur 0 890.3 -- 90
2021-02-07 23:00:00 5.3 10 Sudeste 17 Sudeste 0 891 -- 94
2021-02-07 22:00:00 4.1 9 Sudeste 15 Sur 0 891.9 -- 95
2021-02-07 21:00:00 2.9 10 Sudeste 17 Sudeste 0.6 892.7 -- 97
2021-02-07 20:00:00 1.8 8 Sudeste 15 Sudeste 1.2 893.3 -- 96
2021-02-07 19:00:00 1.6 9 Sur 13 Sur 1.4 893.3 -- 94
2021-02-07 18:00:00 2.5 12 Sudoeste 28 Oeste 1 893.1 -- 90
2021-02-07 17:00:00 4.2 23 Oeste 33 Oeste 0.2 892.7 -- 82
2021-02-07 16:00:00 6.6 16 Oeste 23 Oeste 0 892.5 -- 68
2021-02-07 15:00:00 6.4 15 Oeste 24 Oeste 0 892.5 -- 63
2021-02-07 14:00:00 7 12 Oeste 22 Sudoeste 0 893 -- 68
2021-02-07 13:00:00 6.1 15 Sudoeste 22 Oeste 0 893.6 -- 69
2021-02-07 12:00:00 5.5 5 Oeste 10 Oeste 0 893.7 -- 64
2021-02-07 11:00:00 4.2 4 Sur 9 Sudeste 0 893.9 -- 84
2021-02-07 10:00:00 1.6 4 Sudoeste 8 Sur 0 893.7 -- 95
2021-02-07 09:00:00 1.4 7 Sudeste 10 Sur 0 893.4 -- 96
2021-02-07 08:00:00 1.4 3 Noroeste 10 Oeste 0 893 -- 95
2021-02-07 07:00:00 1.8 7 Oeste 12 Oeste 0 892.9 -- 96
2021-02-07 06:00:00 1.8 3 Sudoeste 7 Oeste 0 892.8 -- 93
2021-02-07 05:00:00 1.8 5 Oeste 8 Nordeste 0 892.7 -- 93
2021-02-07 04:00:00 2.1 6 Nordeste 16 Nordeste 0 892.9 -- 88
2021-02-07 03:00:00 2.3 7 Norte 17 Norte 0 893.1 -- 90
2021-02-07 02:00:00 2.5 9 Nordeste 24 Nordeste 0 892.8 -- 92
2021-02-07 01:00:00 2.7 12 Nordeste 24 Nordeste 0 892.9 -- 92
2021-02-07 00:00:00 3.1 4 Norte 21 Norte 0 892.7 -- 94
2021-02-06 23:00:00 3.3 7 Noroeste 16 Noroeste 0 892.3 -- 96
2021-02-06 22:00:00 3.9 3 Norte 9 Norte 0 891.5 -- 93
2021-02-06 21:00:00 4 4 Nordeste 23 Nordeste 0 891 -- 92
2021-02-06 20:00:00 4.1 10 Norte 28 Nordeste 0 890.7 -- 90
2021-02-06 19:00:00 4.6 8 Norte 26 Nordeste 0 890.1 -- 90
2021-02-06 18:00:00 4.9 9 Nordeste 28 Norte 0 889.5 -- 91
2021-02-06 17:00:00 5.5 13 Norte 24 Norte 0 888.9 -- 92
2021-02-06 16:00:00 5.8 7 Norte 24 Noroeste 0.4 888.3 -- 92
2021-02-06 15:00:00 5 14 Norte 36 Noroeste 3 888 -- 96
2021-02-06 14:00:00 7.2 4 Oeste 22 Oeste 1.2 887.7 -- 90
2021-02-06 13:00:00 8.7 4 Noroeste 12 Oeste 0 888 -- 84
2021-02-06 12:00:00 7.7 4 Noroeste 8 Noroeste 0 888.1 -- 87
2021-02-06 11:00:00 7 5 Noroeste 9 Noroeste 0 887.8 -- 88
2021-02-06 10:00:00 6.3 4 Noroeste 6 Noroeste 0 887.5 -- 89
2021-02-06 09:00:00 5.6 3 Este 4 Este 0 887.2 -- 91
2021-02-06 08:00:00 5.7 2 Nordeste 12 Sudeste 0 886.8 -- 89
2021-02-06 07:00:00 6 6 Este 13 Este 0.2 886.5 -- 87
2021-02-06 06:00:00 5.9 8 Noroeste 18 Sudoeste 0.4 886.5 -- 89
2021-02-06 05:00:00 6.1 2 Nordeste 11 Sudeste 0 886.2 -- 82
2021-02-06 04:00:00 6.4 4 Oeste 26 Sudeste 0 886.3 -- 82
2021-02-06 03:00:00 6.7 18 Sudeste 25 Sudoeste 0 886.5 -- 87
2021-02-06 02:00:00 7 12 Sudoeste 30 Sur 0 887.3 -- 89
2021-02-06 01:00:00 7.2 13 Sur 18 Sur 0 887.8 -- 87
2021-02-06 00:00:00 6.8 12 Nordeste 26 Nordeste 0.2 888 -- 88
2021-02-05 23:00:00 6.8 19 Sur 36 Sudoeste 2.6 888.9 -- 85
2021-02-05 22:00:00 8 21 Este 41 Este 1 888.5 -- 87
2021-02-05 21:00:00 8.5 11 Sur 17 Sudeste 0 887.6 -- 87
2021-02-05 20:00:00 9.2 7 Sudoeste 11 Oeste 0 887.5 -- 85
2021-02-05 19:00:00 10 9 Sudoeste 15 Sudoeste 0 887.4 -- 82
2021-02-05 18:00:00 11.9 4 Sudoeste 14 Noroeste 0 887.5 -- 75
2021-02-05 17:00:00 12.2 9 Noroeste 21 Noroeste 0 888 -- 73
2021-02-05 16:00:00 13.3 9 Noroeste 19 Noroeste 0 888.3 -- 67
2021-02-05 15:00:00 13.4 8 Norte 19 Noroeste 0 889 -- 64
2021-02-05 14:00:00 12.9 13 Nordeste 26 Nordeste 0 889.6 -- 62
2021-02-05 13:00:00 11.4 9 Norte 23 Nordeste 0 890.6 -- 74
2021-02-05 12:00:00 11.1 11 Norte 24 Noroeste 0 892 -- 73
2021-02-05 11:00:00 10.1 9 Nordeste 15 Sur 0 892.2 -- 71
2021-02-05 10:00:00 7.5 7 Oeste 16 Este 0 892.5 -- 81
2021-02-05 09:00:00 7 11 Nordeste 25 Este 0 892.5 -- 79
2021-02-05 08:00:00 7.2 13 Este 22 Nordeste 0 892.7 -- 80
2021-02-05 07:00:00 7.2 6 Nordeste 12 Nordeste 0 892.8 -- 81
2021-02-05 06:00:00 7.8 9 Norte 19 Noroeste 0 892.6 -- 79
2021-02-05 05:00:00 10 6 Sudoeste 14 Sudoeste 0 893.3 -- 68
2021-02-05 04:00:00 11.1 8 Sudoeste 44 Sur 0 893.4 -- 61
2021-02-05 03:00:00 12.1 28 Sur 50 Sur 0 893.4 -- 56
2021-02-05 02:00:00 10.9 21 Sur 33 Sur 0 893.7 -- 64
2021-02-05 01:00:00 8 11 Sudeste 19 Sur 0 894.6 -- 79
2021-02-05 00:00:00 5 8 Este 10 Este 0 894.8 -- 96
2021-02-04 23:00:00 4.5 3 Noroeste 11 Este 0 894.8 -- 98
2021-02-04 22:00:00 4.5 6 Nordeste 14 Este 0 894.6 -- 96
2021-02-04 21:00:00 4.8 3 Sudeste 10 Oeste 0 895 -- 97
2021-02-04 20:00:00 4.8 4 Oeste 13 Oeste 0 895.4 -- 97
2021-02-04 19:00:00 4.8 9 Sudoeste 24 Oeste 0 895.5 -- 98
2021-02-04 18:00:00 5.4 21 Oeste 28 Oeste 0 895.3 -- 96
2021-02-04 17:00:00 7.3 13 Oeste 31 Sur 0 894.3 -- 91
2021-02-04 16:00:00 11.2 27 Sur 40 Sur 0 893.2 -- 62
2021-02-04 15:00:00 12.3 24 Sudoeste 40 Sudoeste 0 893.5 -- 60
2021-02-04 14:00:00 11.5 4 Norte 16 Noroeste 0 893.9 -- 78
2021-02-04 13:00:00 11.1 8 Oeste 17 Noroeste 0 894.5 -- 82
2021-02-04 12:00:00 10.3 11 Oeste 16 Oeste 0 894.9 -- 85
2021-02-04 11:00:00 9.6 5 Norte 10 Oeste 0 895 -- 81
2021-02-04 10:00:00 8.3 6 Sudoeste 12 Sudoeste 0 895.5 -- 89
2021-02-04 09:00:00 7.8 3 Nordeste 11 Nordeste 0 895.7 -- 91
2021-02-04 08:00:00 7.3 7 Este 15 Este 0 896 -- 95
2021-02-04 07:00:00 7.2 9 Nordeste 20 Este 0 896.3 -- 97
2021-02-04 06:00:00 7.4 10 Nordeste 15 Nordeste 0 896.5 -- 95
2021-02-04 05:00:00 7.5 6 Este 12 Nordeste 0 896.8 -- 95
2021-02-04 04:00:00 7.6 5 Nordeste 12 Este 0 897.1 -- 96
2021-02-04 03:00:00 7.4 6 Nordeste 14 Este 0 897.3 -- 97
2021-02-04 02:00:00 7.5 8 Nordeste 13 Nordeste 0 897.5 -- 97
2021-02-04 01:00:00 7.7 4 Nordeste 8 Nordeste 0 897.7 -- 96
2021-02-04 00:00:00 7.6 5 Oeste 13 Oeste 0 898.1 -- 98
2021-02-03 23:00:00 7.9 5 Noroeste 18 Oeste 0 898.2 -- 98
2021-02-03 22:00:00 8.8 14 Oeste 21 Oeste 0 898 -- 90
2021-02-03 21:00:00 10.2 9 Sudoeste 22 Sur 0 897.5 -- 76
2021-02-03 20:00:00 10.2 11 Sur 27 Sur 0 897.5 -- 71
2021-02-03 19:00:00 10.4 17 Sur 24 Sur 0 897.2 -- 69
2021-02-03 18:00:00 12.1 21 Sudoeste 38 Sudoeste 0 897 -- 61
2021-02-03 17:00:00 12.8 25 Sudoeste 40 Sudoeste 0 897.3 -- 62
2021-02-03 16:00:00 13.4 24 Sudoeste 40 Sudoeste 0 897.6 -- 58
2021-02-03 15:00:00 13.5 25 Sudoeste 38 Sudoeste 0 897.9 -- 59
2021-02-03 14:00:00 13 28 Sudoeste 39 Sudoeste 0 898.3 -- 61
2021-02-03 13:00:00 12.1 22 Sudoeste 33 Sudoeste 0 898.8 -- 63
2021-02-03 12:00:00 11.5 21 Sudoeste 35 Sudoeste 0 899.5 -- 65
2021-02-03 11:00:00 11 17 Sudoeste 30 Sudoeste 0 899.3 -- 67
2021-02-03 10:00:00 10.7 13 Sur 26 Sudoeste 0 899 -- 68
2021-02-03 09:00:00 10 14 Sur 28 Sudoeste 0 898.4 -- 69
2021-02-03 08:00:00 9.5 21 Sur 32 Sudoeste 0 897.7 -- 69
2021-02-03 07:00:00 10.4 16 Sudoeste 36 Sudoeste 0 897.3 -- 63
2021-02-03 06:00:00 10.7 21 Sudoeste 40 Sudoeste 0 897.1 -- 62
2021-02-03 05:00:00 10.7 17 Sudoeste 37 Sur 0 897.3 -- 60
2021-02-03 04:00:00 10.2 16 Sur 25 Sur 0 897.3 -- 62
2021-02-03 03:00:00 7.3 16 Sudeste 21 Sudeste 0 897.9 -- 67
2021-02-03 02:00:00 4.8 3 Sudeste 14 Sudeste 0 898.2 -- 84
2021-02-03 01:00:00 4.7 8 Sudeste 12 Sudeste 0 898.8 -- 95
2021-02-03 00:00:00 5.7 5 Nordeste 8 Norte 0 899.2 -- 93
2021-02-02 23:00:00 6.4 4 Norte 10 Norte 0 899.6 -- 93
2021-02-02 22:00:00 6.9 5 Nordeste 15 Noroeste 0 900 -- 92
2021-02-02 21:00:00 7.7 7 Norte 27 Nordeste 0 900.2 -- 90
2021-02-02 20:00:00 8.7 16 Nordeste 25 Nordeste 0 899.6 -- 88
2021-02-02 19:00:00 9.8 7 Norte 11 Norte 0 899.5 -- 83
2021-02-02 18:00:00 11.4 8 Oeste 22 Oeste 0 899.3 -- 78
2021-02-02 17:00:00 13.5 9 Oeste 15 Oeste 0 899.8 -- 70
2021-02-02 16:00:00 13.2 6 Noroeste 15 Oeste 0 900.5 -- 67
2021-02-02 15:00:00 13 4 Oeste 15 Noroeste 0 900.7 -- 65
2021-02-02 14:00:00 12 8 Noroeste 14 Noroeste 0 901.5 -- 72
2021-02-02 13:00:00 11.6 6 Norte 15 Norte 0 902.1 -- 71
2021-02-02 12:00:00 10.3 5 Noroeste 12 Sudoeste 0 903.1 -- 75
2021-02-02 11:00:00 9.8 7 Oeste 19 Sudoeste 0 903.6 -- 78
2021-02-02 10:00:00 9.5 10 Sudoeste 19 Sudoeste 0 903.6 -- 81
2021-02-02 09:00:00 9 14 Sudoeste 22 Sudoeste 0 903.4 -- 84
2021-02-02 08:00:00 9.2 7 Sur 13 Sudoeste 0 902.9 -- 81
2021-02-02 07:00:00 9.2 9 Sur 24 Sudoeste 0 903 -- 80
2021-02-02 06:00:00 9.3 15 Sudoeste 25 Sudoeste 0 903.3 -- 81
2021-02-02 05:00:00 9.2 9 Sur 14 Sudoeste 0 903.4 -- 86
2021-02-02 04:00:00 8.9 6 Sudeste 8 Sur 0 903.8 -- 88
2021-02-02 03:00:00 9.2 5 Sudoeste 14 Sudoeste 0 903.9 -- 85
2021-02-02 02:00:00 9.4 11 Sudoeste 19 Sudoeste 0 903.6 -- 83
2021-02-02 01:00:00 8.8 8 Sur 15 Sudoeste 0 903.6 -- 83
2021-02-02 00:00:00 9.1 8 Sudoeste 15 Sudoeste 0 903.5 -- 77
2021-02-01 23:00:00 9.2 7 Sudoeste 14 Sur 0 903.8 -- 77
2021-02-01 22:00:00 8.5 11 Sudeste 17 Sudeste 0 903.6 -- 81
2021-02-01 21:00:00 7.3 10 Sudeste 15 Sur 0 903.7 -- 84
2021-02-01 20:00:00 8.5 10 Sudoeste 19 Oeste 0 903.5 -- 80
2021-02-01 19:00:00 8.9 12 Sudoeste 25 Oeste 0 903.4 -- 78
2021-02-01 18:00:00 9.8 19 Oeste 34 Oeste 0 903.1 -- 74
2021-02-01 17:00:00 10.1 21 Oeste 37 Oeste 0 902.9 -- 73
2021-02-01 16:00:00 10.2 25 Oeste 38 Oeste 0 902.7 -- 72
2021-02-01 15:00:00 9.7 22 Oeste 40 Oeste 0 902.8 -- 79
2021-02-01 14:00:00 9 27 Oeste 42 Oeste 0 903 -- 83
2021-02-01 13:00:00 9.2 26 Oeste 37 Oeste 0 902.9 -- 81
2021-02-01 12:00:00 8.5 26 Oeste 35 Oeste 0 903 -- 82
2021-02-01 11:00:00 7.4 17 Sudoeste 30 Sudoeste 0 902.8 -- 85
2021-02-01 10:00:00 6.6 18 Sudoeste 32 Sudoeste 0 902.6 -- 87
2021-02-01 09:00:00 6.4 26 Sudoeste 37 Sudoeste 0 901.8 -- 88
2021-02-01 08:00:00 6.4 25 Sudoeste 38 Sudoeste 0 901.1 -- 88
2021-02-01 07:00:00 6.5 22 Sudoeste 39 Sudoeste 0 900.8 -- 88
2021-02-01 06:00:00 6.5 26 Sudoeste 50 Oeste 0 900.2 -- 87
2021-02-01 05:00:00 6.7 35 Oeste 60 Oeste 0 899.8 -- 87
2021-02-01 04:00:00 6.9 38 Oeste 55 Oeste 0 899.5 -- 87
2021-02-01 03:00:00 7.5 32 Oeste 58 Oeste 0 899.6 -- 86
2021-02-01 02:00:00 7.8 40 Oeste 63 Oeste 0 899.4 -- 87
2021-02-01 01:00:00 8.3 42 Oeste 63 Oeste 0 899.2 -- 88
2021-02-01 00:00:00 8.8 41 Oeste 67 Oeste 0 899.2 -- 86
2021-01-31 23:00:00 9.1 38 Oeste 54 Oeste 0 899.4 -- 84
2021-01-31 22:00:00 9.1 33 Oeste 54 Oeste 0 898.8 -- 85
2021-01-31 21:00:00 8.9 26 Oeste 40 Oeste 0 898.8 -- 86
2021-01-31 20:00:00 9.3 28 Sudoeste 42 Sudoeste 0 898.6 -- 89
2021-01-31 19:00:00 10.1 31 Sudoeste 54 Oeste 0 898.5 -- 88
2021-01-31 18:00:00 10.8 21 Sudoeste 44 Sudoeste 0 897.9 -- 92
2021-01-31 17:00:00 10.7 23 Oeste 36 Sudoeste 0 898.3 -- 94
2021-01-31 16:00:00 10.1 27 Sudoeste 41 Sudoeste 0.2 898.7 -- 96
2021-01-31 15:00:00 9.3 22 Sudoeste 36 Oeste 0.6 899.3 -- 100
2021-01-31 14:00:00 8.8 21 Oeste 29 Sudoeste 1.8 899.6 -- 100
2021-01-31 13:00:00 8.2 16 Oeste 25 Sudoeste 1 900 -- 100
2021-01-31 12:00:00 6.9 12 Sudoeste 22 Sur 3.2 900.4 -- 100
2021-01-31 11:00:00 6.2 10 Sudoeste 22 Sudoeste 1.6 900.6 -- 99
2021-01-31 10:00:00 5.5 12 Sudoeste 21 Sudoeste 0.6 900.7 -- 98
2021-01-31 09:00:00 4.9 16 Sudoeste 26 Sudoeste 1.8 900.5 -- 97
2021-01-31 08:00:00 5.1 21 Sudoeste 35 Oeste 0 900 -- 92
2021-01-31 07:00:00 5 25 Oeste 35 Oeste 0 899.9 -- 88
2021-01-31 06:00:00 4.6 24 Sudoeste 39 Oeste 0 899.6 -- 89
2021-01-31 05:00:00 4.5 28 Sudoeste 42 Sudoeste 0 899.6 -- 86
2021-01-31 04:00:00 4.5 28 Oeste 47 Oeste 0 899.4 -- 86
2021-01-31 03:00:00 4.6 28 Oeste 44 Oeste 0 899.6 -- 86
2021-01-31 02:00:00 4.7 36 Oeste 52 Oeste 0 899.3 -- 87
2021-01-31 01:00:00 4.8 32 Oeste 51 Oeste 0 899.1 -- 89
2021-01-31 00:00:00 4.9 35 Oeste 55 Oeste 0 898.9 -- 87
2021-01-30 23:00:00 4.7 32 Oeste 52 Oeste 0.2 898.9 -- 88
2021-01-30 22:00:00 4.6 33 Oeste 48 Oeste 0 898.6 -- 93
2021-01-30 21:00:00 4.7 26 Oeste 54 Oeste 0 898.4 -- 91
2021-01-30 20:00:00 5.3 36 Oeste 59 Oeste 0 897.7 -- 84
2021-01-30 19:00:00 5.2 39 Oeste 57 Sudoeste 0 897.2 -- 88
2021-01-30 18:00:00 5.9 42 Oeste 65 Oeste 0 897.2 -- 82
2021-01-30 17:00:00 6.7 41 Oeste 72 Oeste 0 896.9 -- 78
2021-01-30 16:00:00 7.9 42 Oeste 75 Sudoeste 0 896.7 -- 67
2021-01-30 15:00:00 7.7 42 Oeste 68 Oeste 0 897.2 -- 68
2021-01-30 14:00:00 6.6 37 Oeste 62 Oeste 0 898.1 -- 79
2021-01-30 13:00:00 7.1 45 Oeste 68 Oeste 0.2 898.8 -- 71
2021-01-30 12:00:00 5.8 37 Oeste 58 Oeste 0.2 899 -- 90
2021-01-30 11:00:00 6.3 40 Oeste 58 Oeste 0 898.7 -- 82
2021-01-30 10:00:00 5.7 26 Oeste 43 Oeste 0 899 -- 92
2021-01-30 09:00:00 6 26 Sudoeste 59 Oeste 0.2 898.7 -- 94
2021-01-30 08:00:00 6.2 38 Oeste 59 Oeste 0.2 898.6 -- 92
2021-01-30 07:00:00 6.1 30 Sudoeste 40 Sudoeste 0.4 899.1 -- 94
2021-01-30 06:00:00 6 28 Sudoeste 63 Oeste 3 899 -- 92
2021-01-30 05:00:00 7.4 18 Oeste 37 Noroeste 3 900.3 -- 96
2021-01-30 04:00:00 7.8 4 Sur 14 Sudeste 0 899.7 -- 91
2021-01-30 03:00:00 7.4 6 Sudoeste 24 Noroeste 0 900.6 -- 93
2021-01-30 02:00:00 8.1 6 Noroeste 17 Sur 0 900.3 -- 84
2021-01-30 01:00:00 8.7 16 Sur 23 Sur 0 900.4 -- 76
2021-01-30 00:00:00 10.5 12 Sudoeste 26 Sudoeste 0 902.4 -- 67
2021-01-29 23:00:00 10.9 13 Sudoeste 27 Sudoeste 0 903.5 -- 63
2021-01-29 22:00:00 9.7 9 Sur 24 Sudoeste 0 903.6 -- 71
2021-01-29 21:00:00 10.8 15 Sudoeste 21 Sudoeste 0 904.2 -- 72
2021-01-29 20:00:00 9.6 15 Sudeste 18 Sur 0 904.1 -- 76
2021-01-29 19:00:00 11.7 5 Sudoeste 8 Sudoeste 0 904.2 -- 76
2021-01-29 18:00:00 13.3 7 Sudoeste 17 Sudoeste 0 904.4 -- 71
2021-01-29 17:00:00 13.7 14 Sudoeste 20 Sudoeste 0 904.7 -- 69
2021-01-29 16:00:00 13.7 14 Oeste 20 Oeste 0 905.1 -- 68
2021-01-29 15:00:00 13.4 14 Sudoeste 22 Sudoeste 0 905.6 -- 72
2021-01-29 14:00:00 12.9 7 Oeste 14 Sudoeste 0 906.5 -- 72
2021-01-29 13:00:00 12.2 7 Oeste 13 Oeste 0 907 -- 78
2021-01-29 12:00:00 8.9 4 Noroeste 7 Oeste 0 907.6 -- 94
2021-01-29 11:00:00 7.4 3 Sur 9 Oeste 0 907.7 -- 99
2021-01-29 10:00:00 7.2 6 Oeste 13 Oeste 0 907.7 -- 97
2021-01-29 09:00:00 8.3 2 Noroeste 17 Sur 0 907.4 -- 90
2021-01-29 08:00:00 7.9 9 Sur 12 Sur 0 907.4 -- 90
2021-01-29 07:00:00 7.9 6 Sur 19 Sur 0 907.4 -- 87
2021-01-29 06:00:00 7.8 15 Sur 18 Sur 0 907.2 -- 89
2021-01-29 05:00:00 7.3 12 Sur 15 Sur 0 907.7 -- 81
2021-01-29 04:00:00 9 4 Noroeste 9 Noroeste 0 908.1 -- 67
2021-01-29 03:00:00 9.5 3 Nordeste 18 Sur 0 907.8 -- 65
2021-01-29 02:00:00 10 13 Sur 17 Sur 0 907.6 -- 62
2021-01-29 01:00:00 11.1 10 Sur 22 Sudoeste 0 908.3 -- 58
2021-01-29 00:00:00 10.7 11 Sur 18 Sur 0 908.3 -- 58
2021-01-28 23:00:00 11.3 12 Sudoeste 18 Sudoeste 0 908.4 -- 59
2021-01-28 22:00:00 10.7 8 Sur 15 Sudoeste 0 908.2 -- 73
2021-01-28 21:00:00 11.7 3 Sudoeste 14 Sudeste 0 908.2 -- 77
2021-01-28 20:00:00 12 12 Sur 15 Sur 0 907.8 -- 80
2021-01-28 19:00:00 13.8 6 Sudoeste 9 Sudoeste 0 907.8 -- 75
2021-01-28 18:00:00 15.6 4 Oeste 11 Sudoeste 0 907.6 -- 69
2021-01-28 17:00:00 17 7 Oeste 19 Oeste 0 907.7 -- 62
2021-01-28 16:00:00 17.4 11 Oeste 21 Oeste 0 908 -- 59
2021-01-28 15:00:00 17.2 11 Sudoeste 20 Oeste 0 908.5 -- 60
2021-01-28 14:00:00 16.7 9 Oeste 18 Oeste 0 909.4 -- 61
2021-01-28 13:00:00 16.4 9 Oeste 21 Sudoeste 0 910.1 -- 60
2021-01-28 12:00:00 16.3 7 Sudoeste 16 Sudoeste 0 910.7 -- 60
2021-01-28 11:00:00 14.9 4 Este 12 Sudeste 0 910.5 -- 70
2021-01-28 10:00:00 11.9 12 Sudeste 17 Sudeste 0 910.2 -- 79
2021-01-28 09:00:00 9.4 12 Sudeste 17 Sur 0 909.8 -- 83
2021-01-28 08:00:00 9.6 15 Sudeste 18 Sudeste 0 909.5 -- 83
2021-01-28 07:00:00 9.5 14 Sudeste 17 Sudeste 0 909.5 -- 82
2021-01-28 06:00:00 9 15 Sudeste 17 Sudeste 0 909.8 -- 85
2021-01-28 05:00:00 9.9 13 Sudeste 18 Sudeste 0 910.1 -- 82
2021-01-28 04:00:00 9.8 13 Sudeste 19 Sur 0 910.4 -- 84
2021-01-28 03:00:00 9.7 16 Sur 19 Sur 0 910.4 -- 83
2021-01-28 02:00:00 9.2 11 Sudeste 14 Sudeste 0 911.3 -- 87
2021-01-28 01:00:00 8.7 5 Nordeste 14 Sudeste 0 911.4 -- 87
2021-01-28 00:00:00 9.2 7 Este 16 Sudeste 0 911.3 -- 86
2021-01-27 23:00:00 9.6 13 Sudeste 17 Sudeste 0 911 -- 87
2021-01-27 22:00:00 9.6 13 Sudeste 20 Sudeste 0 911.1 -- 84
2021-01-27 21:00:00 9.9 12 Sudeste 16 Sudeste 0 911.2 -- 84
2021-01-27 20:00:00 10.4 13 Sudeste 15 Sudeste 0 911.3 -- 85
2021-01-27 19:00:00 11.1 9 Sudeste 11 Sudeste 0 911.2 -- 85
2021-01-27 18:00:00 12.6 6 Sur 8 Sur 0 911.1 -- 83
2021-01-27 17:00:00 13.1 4 Sur 10 Oeste 0 911.1 -- 79
2021-01-27 16:00:00 12.8 3 Sur 10 Sudoeste 0 911.3 -- 79
2021-01-27 15:00:00 12 6 Sur 17 Oeste 0 911.2 -- 83
2021-01-27 14:00:00 11.7 9 Sudoeste 15 Sudoeste 0 911.6 -- 89
2021-01-27 13:00:00 10.9 4 Sudoeste 13 Oeste 0 911.9 -- 97
2021-01-27 12:00:00 9.8 6 Sudoeste 13 Sudoeste 0 912.2 -- 100
2021-01-27 11:00:00 9.6 5 Oeste 12 Oeste 0 912 -- 100
2021-01-27 10:00:00 9.3 6 Oeste 22 Oeste 0 911.3 -- 100
2021-01-27 09:00:00 9.5 12 Oeste 21 Oeste 0.2 910.9 -- 100
2021-01-27 08:00:00 9.6 8 Oeste 19 Noroeste 0 910.3 -- 100
2021-01-27 07:00:00 9.9 9 Oeste 16 Sudoeste 0 909.9 -- 100
2021-01-27 06:00:00 10.1 10 Oeste 23 Oeste 0 909.8 -- 100
2021-01-27 05:00:00 10.1 17 Oeste 27 Oeste 0 909.8 -- 100
2021-01-27 04:00:00 10.4 14 Oeste 26 Oeste 0.2 909.6 -- 100
2021-01-27 03:00:00 10.5 16 Oeste 26 Oeste 0.2 909.5 -- 100
2021-01-27 02:00:00 10.5 14 Oeste 23 Oeste 0.4 909.5 -- 100
2021-01-27 01:00:00 10.6 13 Oeste 19 Oeste 1 909.7 -- 100
2021-01-27 00:00:00 10.7 13 Oeste 21 Oeste 0.2 909.6 -- 100
2021-01-26 23:00:00 10.7 12 Oeste 18 Oeste 0 909.5 -- 100
2021-01-26 22:00:00 10.8 8 Sudoeste 14 Oeste 0.6 909.3 -- 100
2021-01-26 21:00:00 10.9 7 Noroeste 15 Noroeste 0.2 909.4 -- 100
2021-01-26 20:00:00 10.9 8 Noroeste 13 Oeste 0 909.3 -- 100
2021-01-26 19:00:00 10.9 9 Oeste 22 Oeste 0.4 908.9 -- 100
2021-01-26 18:00:00 11 5 Sudoeste 14 Noroeste 0.4 908.2 -- 100
2021-01-26 17:00:00 11.1 8 Oeste 23 Oeste 0.6 908 -- 100
2021-01-26 16:00:00 11.3 12 Oeste 21 Sudoeste 0.2 907.8 -- 100
2021-01-26 15:00:00 11 13 Oeste 23 Oeste 0 907.5 -- 99
2021-01-26 14:00:00 10.7 15 Oeste 21 Oeste 0 907.9 -- 99
2021-01-26 13:00:00 10.5 13 Oeste 19 Oeste 0 908.1 -- 100
2021-01-26 12:00:00 9.8 12 Sudoeste 15 Sudoeste 0.6 908.4 -- 100
2021-01-26 11:00:00 9.3 8 Sudoeste 12 Sudoeste 0 908 -- 100
2021-01-26 10:00:00 8.8 7 Sudoeste 15 Oeste 0.2 907.6 -- 100
2021-01-26 09:00:00 8.6 12 Oeste 17 Oeste 1 907.2 -- 100
2021-01-26 08:00:00 8.5 8 Oeste 18 Oeste 0.6 906.5 -- 100
2021-01-26 07:00:00 8.5 12 Oeste 18 Oeste 0.6 905.8 -- 100
2021-01-26 06:00:00 8.3 9 Oeste 15 Oeste 1.2 905.7 -- 100
2021-01-26 05:00:00 8.2 7 Sudoeste 10 Sudoeste 0.6 905.2 -- 100
2021-01-26 04:00:00 7.9 7 Sur 12 Sur 0.2 905.1 -- 100
2021-01-26 03:00:00 7.6 8 Sur 11 Sur 0.2 904.7 -- 100
2021-01-26 02:00:00 7.4 4 Sur 10 Sudeste 0.4 904.4 -- 100
2021-01-26 01:00:00 7.5 6 Sur 10 Este 0.2 904 -- 99
2021-01-26 00:00:00 7.5 4 Noroeste 10 Sudeste 0.4 903.7 -- 99
2021-01-25 23:00:00 7.4 5 Sudeste 7 Sudeste 0.2 903.1 -- 98
2021-01-25 22:00:00 7.5 2 Este 13 Nordeste 1.2 902.7 -- 99
2021-01-25 21:00:00 7.7 6 Este 14 Nordeste 0.6 901.8 -- 98
2021-01-25 20:00:00 8.7 6 Noroeste 36 Oeste 1.8 901.1 -- 99
2021-01-25 19:00:00 9.5 22 Oeste 40 Oeste 0 899.7 -- 98
2021-01-25 18:00:00 9.6 23 Oeste 47 Oeste 0 898.9 -- 98
2021-01-25 17:00:00 9.7 26 Oeste 45 Oeste 0.2 898.1 -- 98
2021-01-25 16:00:00 9.5 28 Oeste 51 Oeste 0 897.5 -- 98
2021-01-25 15:00:00 9.6 33 Oeste 47 Oeste 0.8 897.1 -- 98
2021-01-25 14:00:00 9.3 33 Oeste 50 Oeste 0.4 897.1 -- 98
2021-01-25 13:00:00 9.3 36 Oeste 50 Oeste 0.2 897.4 -- 94
2021-01-25 12:00:00 10.3 36 Oeste 55 Oeste 0.2 897.5 -- 84
2021-01-25 11:00:00 10.2 24 Oeste 42 Oeste 0 897.2 -- 84
2021-01-25 10:00:00 9.9 33 Sudoeste 49 Sudoeste 0 897 -- 83
2021-01-25 09:00:00 9.3 18 Sudoeste 39 Sudoeste 0 896.5 -- 82
2021-01-25 08:00:00 9.3 26 Sudoeste 40 Sudoeste 0 896.3 -- 82
2021-01-25 07:00:00 8.9 23 Sudoeste 34 Sudoeste 0 896.4 -- 82
2021-01-25 06:00:00 8.2 14 Sudoeste 24 Sudoeste 0 896.5 -- 84
2021-01-25 05:00:00 8.2 18 Sudoeste 32 Sudoeste 0 896.6 -- 85
2021-01-25 04:00:00 7.8 22 Sudoeste 30 Sudoeste 0.2 897.1 -- 86
2021-01-25 03:00:00 6.7 14 Sur 19 Sur 0.2 897.5 -- 86
2021-01-25 02:00:00 6.8 11 Sur 25 Sudoeste 0 898.5 -- 80
2021-01-25 01:00:00 6.3 9 Sur 19 Sudoeste 0 899.5 -- 82
2021-01-25 00:00:00 6.3 15 Sudoeste 22 Sudoeste 0 899.8 -- 80